Time;durP1;ratioP1;P1;durP2;ratioP2;P2;SDS_P1;SDS_P2;PMS_P1;PMS_P2;Temp;Humidity;BMP_temperature;BMP_pressure;BME280_temperature;BME280_humidity;BME280_pressure;Samples;Min_cycle;Max_cycle;Signal;HPM_P1;HPM_P2
2024/01/26 00:00:30;;;;;;;10.60;8.82;;;;;;;;;;5260415;28;20128;-80
2024/01/26 00:03:01;;;;;;;9.80;8.85;;;;;;;;;;5262047;28;20017;-80
2024/01/26 00:05:32;;;;;;;9.15;7.68;;;;;;;;;;5262006;28;20024;-80
2024/01/26 00:08:05;;;;;;;8.90;7.75;;;;;;;;;;5261436;28;20048;-80
2024/01/26 00:10:36;;;;;;;9.15;7.70;;;;;;;;;;5262168;28;20380;-80
2024/01/26 00:13:07;;;;;;;9.40;7.65;;;;;;;;;;5261835;28;20017;-80
2024/01/26 00:15:40;;;;;;;8.93;7.40;;;;;;;;;;5260958;28;20017;-80
2024/01/26 00:18:11;;;;;;;7.28;6.68;;;;;;;;;;5261631;28;20135;-80
2024/01/26 00:20:43;;;;;;;7.70;7.00;;;;;;;;;;5262006;28;20491;-81
2024/01/26 00:23:14;;;;;;;8.07;7.32;;;;;;;;;;5261285;28;20017;-80
2024/01/26 00:25:45;;;;;;;7.80;6.90;;;;;;;;;;5261700;28;20021;-80
2024/01/26 00:28:16;;;;;;;7.47;6.78;;;;;;;;;;5260830;28;20025;-80
2024/01/26 00:30:47;;;;;;;7.53;6.93;;;;;;;;;;5261552;28;20276;-80
2024/01/26 00:33:18;;;;;;;7.16;6.52;;;;;;;;;;5261572;28;20017;-81
2024/01/26 00:35:50;;;;;;;7.90;7.18;;;;;;;;;;5260837;28;20028;-81
2024/01/26 00:38:21;;;;;;;7.85;7.03;;;;;;;;;;5261281;28;20025;-80
2024/01/26 00:40:53;;;;;;;6.63;6.03;;;;;;;;;;5261647;28;20468;-81
2024/01/26 00:43:24;;;;;;;6.90;6.20;;;;;;;;;;5260118;28;20021;-81
2024/01/26 00:45:55;;;;;;;7.85;7.13;;;;;;;;;;5261720;28;20361;-80
2024/01/26 00:48:26;;;;;;;6.05;5.65;;;;;;;;;;5260897;28;20029;-81
2024/01/26 00:50:57;;;;;;;7.97;7.15;;;;;;;;;;5260654;28;20063;-80
2024/01/26 00:53:28;;;;;;;6.78;6.15;;;;;;;;;;5261219;28;20028;-80
2024/01/26 00:56:00;;;;;;;6.40;5.80;;;;;;;;;;5260910;28;20068;-80
2024/01/26 00:58:31;;;;;;;5.95;5.43;;;;;;;;;;5260370;28;20384;-80
2024/01/26 01:01:03;;;;;;;5.88;5.28;;;;;;;;;;5260885;28;20104;-80
2024/01/26 01:03:35;;;;;;;5.20;4.70;;;;;;;;;;5260329;28;20020;-80
2024/01/26 01:06:06;;;;;;;5.07;4.57;;;;;;;;;;5260184;28;20019;-80
2024/01/26 01:08:37;;;;;;;5.70;4.93;;;;;;;;;;5260846;28;20110;-80
2024/01/26 01:11:08;;;;;;;5.28;4.65;;;;;;;;;;5260365;28;20542;-80
2024/01/26 01:13:40;;;;;;;4.90;4.50;;;;;;;;;;5260976;28;20031;-80
2024/01/26 01:16:12;;;;;;;6.00;4.03;;;;;;;;;;5260667;28;20032;-80
2024/01/26 01:18:43;;;;;;;4.50;4.05;;;;;;;;;;5260118;28;20483;-81
2024/01/26 01:21:15;;;;;;;4.60;4.20;;;;;;;;;;5261100;28;20029;-80
2024/01/26 01:23:46;;;;;;;3.80;3.20;;;;;;;;;;5260916;28;20067;-80
2024/01/26 01:26:18;;;;;;;3.63;3.33;;;;;;;;;;5260132;28;20040;-81
2024/01/26 01:28:49;;;;;;;6.28;3.67;;;;;;;;;;5260596;28;20027;-80
2024/01/26 01:31:20;;;;;;;3.42;2.70;;;;;;;;;;5260771;28;20035;-81
2024/01/26 01:33:51;;;;;;;3.00;2.60;;;;;;;;;;5260184;28;20031;-80
2024/01/26 01:36:22;;;;;;;3.65;2.97;;;;;;;;;;5260321;28;20112;-81
2024/01/26 01:38:54;;;;;;;3.63;2.95;;;;;;;;;;5260340;28;20494;-81
2024/01/26 01:41:25;;;;;;;3.47;2.15;;;;;;;;;;5260460;28;20028;-81
2024/01/26 01:43:56;;;;;;;2.72;2.25;;;;;;;;;;5260924;28;20057;-80
2024/01/26 01:46:28;;;;;;;3.25;2.42;;;;;;;;;;5259799;28;20029;-80
2024/01/26 01:48:59;;;;;;;4.25;2.15;;;;;;;;;;5260713;28;20071;-80
2024/01/26 01:51:33;;;;;;;2.60;2.40;;;;;;;;;;5260620;28;20151;-80
2024/01/26 01:54:04;;;;;;;2.65;2.03;;;;;;;;;;5259676;28;20045;-80
2024/01/26 01:56:38;;;;;;;2.58;2.17;;;;;;;;;;5260848;28;20023;-80
2024/01/26 01:59:10;;;;;;;3.05;2.15;;;;;;;;;;5260631;28;20029;-80
2024/01/26 02:01:41;;;;;;;2.88;2.47;;;;;;;;;;5259670;28;20036;-80
2024/01/26 02:04:12;;;;;;;2.42;2.03;;;;;;;;;;5260342;28;20460;-80
2024/01/26 02:06:52;;;;;;;2.47;2.05;;;;;;;;;;5259768;28;20025;-81
2024/01/26 02:09:24;;;;;;;3.42;2.00;;;;;;;;;;5260236;28;20035;-80
2024/01/26 02:11:56;;;;;;;4.03;2.17;;;;;;;;;;5261232;28;20104;-80
2024/01/26 02:14:27;;;;;;;3.15;1.58;;;;;;;;;;5259398;28;20087;-80
2024/01/26 02:16:59;;;;;;;2.15;1.80;;;;;;;;;;5261415;28;20017;-80
2024/01/26 02:19:31;;;;;;;2.10;1.23;;;;;;;;;;5264445;28;20021;-80
2024/01/26 02:22:03;;;;;;;3.08;1.58;;;;;;;;;;5263371;28;20020;-80
2024/01/26 02:24:34;;;;;;;1.70;1.20;;;;;;;;;;5264169;28;20511;-80
2024/01/26 02:27:05;;;;;;;1.88;0.80;;;;;;;;;;5264170;28;20029;-80
2024/01/26 02:29:37;;;;;;;1.60;1.05;;;;;;;;;;5263380;28;20369;-80
2024/01/26 02:32:09;;;;;;;2.30;0.85;;;;;;;;;;5264069;28;20028;-80
2024/01/26 02:34:40;;;;;;;1.95;1.10;;;;;;;;;;5263926;28;20032;-80
2024/01/26 02:37:11;;;;;;;1.40;1.10;;;;;;;;;;5263192;28;20021;-80
2024/01/26 02:39:42;;;;;;;2.55;1.10;;;;;;;;;;5263757;28;20060;-81
2024/01/26 02:42:14;;;;;;;1.90;1.08;;;;;;;;;;5263283;28;20028;-80
2024/01/26 02:44:45;;;;;;;1.52;1.05;;;;;;;;;;5263946;28;20025;-80
2024/01/26 02:47:16;;;;;;;2.30;1.00;;;;;;;;;;5263696;28;20013;-80
2024/01/26 02:49:47;;;;;;;1.90;0.80;;;;;;;;;;5262776;28;20029;-80
2024/01/26 02:52:20;;;;;;;4.15;0.80;;;;;;;;;;5263547;28;20028;-80
2024/01/26 02:54:52;;;;;;;2.28;1.00;;;;;;;;;;5263549;28;20384;-81
2024/01/26 02:57:23;;;;;;;1.55;0.80;;;;;;;;;;5262491;28;20021;-80
2024/01/26 02:59:54;;;;;;;1.30;0.90;;;;;;;;;;5263932;28;20048;-81
2024/01/26 03:02:25;;;;;;;1.73;0.90;;;;;;;;;;5262949;28;20060;-81
2024/01/26 03:04:56;;;;;;;2.92;1.00;;;;;;;;;;5262885;28;20021;-80
2024/01/26 03:07:28;;;;;;;3.58;1.20;;;;;;;;;;5263345;28;20351;-81
2024/01/26 03:09:59;;;;;;;1.45;0.73;;;;;;;;;;5262538;28;20084;-81
2024/01/26 03:12:30;;;;;;;2.33;1.10;;;;;;;;;;5263239;28;20020;-80
2024/01/26 03:15:01;;;;;;;2.05;0.95;;;;;;;;;;5262969;28;20047;-80
2024/01/26 03:17:32;;;;;;;2.13;1.10;;;;;;;;;;5262564;28;20346;-81
2024/01/26 03:20:04;;;;;;;2.13;1.05;;;;;;;;;;5263068;28;20108;-80
2024/01/26 03:22:35;;;;;;;4.10;1.00;;;;;;;;;;5262968;28;20020;-81
2024/01/26 03:25:06;;;;;;;1.50;0.85;;;;;;;;;;5262198;28;20017;-80
2024/01/26 03:27:38;;;;;;;2.45;1.00;;;;;;;;;;5262896;28;20025;-81
2024/01/26 03:30:09;;;;;;;3.22;0.93;;;;;;;;;;5262158;28;20379;-80
2024/01/26 03:32:40;;;;;;;1.88;1.00;;;;;;;;;;5262185;28;20181;-80
2024/01/26 03:35:11;;;;;;;1.90;0.90;;;;;;;;;;5262763;28;20074;-80
2024/01/26 03:37:43;;;;;;;1.40;0.90;;;;;;;;;;5262691;28;20056;-80
2024/01/26 03:40:14;;;;;;;2.25;0.82;;;;;;;;;;5261815;28;20021;-80
2024/01/26 03:42:45;;;;;;;1.83;1.00;;;;;;;;;;5262544;28;20020;-81
2024/01/26 03:45:16;;;;;;;2.25;1.13;;;;;;;;;;5261633;28;20480;-80
2024/01/26 03:47:48;;;;;;;2.53;1.10;;;;;;;;;;5262246;28;20044;-80
2024/01/26 03:50:19;;;;;;;2.28;1.25;;;;;;;;;;5262190;28;20052;-80
2024/01/26 03:52:51;;;;;;;2.53;1.10;;;;;;;;;;5261707;28;20341;-81
2024/01/26 03:55:22;;;;;;;2.42;1.10;;;;;;;;;;5261825;28;20045;-80
2024/01/26 03:57:54;;;;;;;1.92;1.00;;;;;;;;;;5262371;28;20032;-80
2024/01/26 04:00:25;;;;;;;2.95;1.35;;;;;;;;;;5261159;28;20372;-81
2024/01/26 04:02:56;;;;;;;3.55;1.40;;;;;;;;;;5262241;28;20074;-80
2024/01/26 04:05:27;;;;;;;2.60;1.70;;;;;;;;;;5262349;28;20024;-80
2024/01/26 04:07:59;;;;;;;2.50;1.60;;;;;;;;;;5261160;28;20032;-81
2024/01/26 04:10:30;;;;;;;3.42;1.70;;;;;;;;;;5262184;28;20535;-80
2024/01/26 04:13:01;;;;;;;4.75;2.25;;;;;;;;;;5261982;28;20098;-81
2024/01/26 04:15:33;;;;;;;4.90;2.05;;;;;;;;;;5261133;28;20021;-81
2024/01/26 04:18:04;;;;;;;2.67;2.03;;;;;;;;;;5261586;28;20052;-81
2024/01/26 04:20:35;;;;;;;3.30;2.33;;;;;;;;;;5261285;28;20721;-81
2024/01/26 04:23:06;;;;;;;6.43;2.63;;;;;;;;;;5261902;28;20033;-80
2024/01/26 04:25:37;;;;;;;3.17;2.75;;;;;;;;;;5261799;28;20025;-80
2024/01/26 04:28:09;;;;;;;4.95;3.25;;;;;;;;;;5260786;28;20112;-80
2024/01/26 04:30:42;;;;;;;4.63;2.47;;;;;;;;;;5261794;28;20024;-81
2024/01/26 04:33:13;;;;;;;3.53;2.47;;;;;;;;;;5261361;28;20075;-81
2024/01/26 04:35:44;;;;;;;2.88;2.58;;;;;;;;;;5260887;28;20559;-81
2024/01/26 04:38:15;;;;;;;4.13;3.50;;;;;;;;;;5261493;28;20100;-81
2024/01/26 04:40:47;;;;;;;3.38;2.85;;;;;;;;;;5261283;28;20021;-80
2024/01/26 04:43:18;;;;;;;3.53;2.88;;;;;;;;;;5261131;28;20361;-80
2024/01/26 04:45:50;;;;;;;3.65;3.25;;;;;;;;;;5261403;28;20108;-80
2024/01/26 04:48:21;;;;;;;3.60;3.17;;;;;;;;;;5260998;28;20056;-81
2024/01/26 04:50:52;;;;;;;3.03;2.78;;;;;;;;;;5260688;28;20484;-80
2024/01/26 04:53:23;;;;;;;4.82;2.92;;;;;;;;;;5261088;28;20013;-80
2024/01/26 04:55:54;;;;;;;4.57;2.72;;;;;;;;;;5260574;28;20048;-80
2024/01/26 04:58:26;;;;;;;2.70;2.50;;;;;;;;;;5260839;28;20134;-80
2024/01/26 05:00:57;;;;;;;3.58;2.83;;;;;;;;;;5261357;28;20017;-80
2024/01/26 05:03:28;;;;;;;4.95;3.13;;;;;;;;;;5260126;28;20029;-80
2024/01/26 05:05:59;;;;;;;4.60;2.80;;;;;;;;;;5261008;28;20079;-80
2024/01/26 05:08:30;;;;;;;3.60;3.00;;;;;;;;;;5261066;28;20514;-80
2024/01/26 05:11:01;;;;;;;6.32;3.00;;;;;;;;;;5260231;28;20021;-80
2024/01/26 05:13:33;;;;;;;3.72;2.53;;;;;;;;;;5260926;28;20476;-80
2024/01/26 05:16:04;;;;;;;4.38;2.67;;;;;;;;;;5260935;28;20079;-80
2024/01/26 05:18:35;;;;;;;4.15;2.63;;;;;;;;;;5260256;28;20029;-80
2024/01/26 05:21:07;;;;;;;4.85;2.58;;;;;;;;;;5261120;28;20048;-80
2024/01/26 05:23:40;;;;;;;3.60;2.67;;;;;;;;;;5260120;28;20025;-79
2024/01/26 05:26:11;;;;;;;4.22;2.90;;;;;;;;;;5260943;28;20078;-80
2024/01/26 05:28:43;;;;;;;3.72;2.47;;;;;;;;;;5260717;28;20025;-80
2024/01/26 05:31:14;;;;;;;2.67;2.35;;;;;;;;;;5260021;28;20049;-79
2024/01/26 05:33:46;;;;;;;3.15;2.63;;;;;;;;;;5260914;28;20024;-79
2024/01/26 05:36:17;;;;;;;4.43;2.35;;;;;;;;;;5260708;28;20448;-79
2024/01/26 05:38:48;;;;;;;4.18;2.45;;;;;;;;;;5259866;28;20074;-79
2024/01/26 05:41:19;;;;;;;4.68;2.88;;;;;;;;;;5260870;28;20028;-79
2024/01/26 05:43:50;;;;;;;4.55;2.60;;;;;;;;;;5260813;28;20025;-79
2024/01/26 05:46:21;;;;;;;4.93;3.20;;;;;;;;;;5259430;28;20104;-78
2024/01/26 05:48:53;;;;;;;4.28;2.72;;;;;;;;;;5260931;28;20033;-78
2024/01/26 05:51:24;;;;;;;3.92;2.45;;;;;;;;;;5260493;28;20025;-78
2024/01/26 05:53:56;;;;;;;3.75;2.30;;;;;;;;;;5264339;28;20032;-78
2024/01/26 05:56:27;;;;;;;3.53;2.35;;;;;;;;;;5264872;28;20036;-80
2024/01/26 05:58:58;;;;;;;3.78;3.05;;;;;;;;;;5264288;28;20044;-77
2024/01/26 06:01:29;;;;;;;3.00;2.60;;;;;;;;;;5264706;28;20048;-77
2024/01/26 06:04:01;;;;;;;3.78;2.88;;;;;;;;;;5264477;28;20021;-79
2024/01/26 06:06:32;;;;;;;4.45;3.50;;;;;;;;;;5263853;28;20456;-77
2024/01/26 06:09:03;;;;;;;5.80;3.42;;;;;;;;;;5264483;28;20033;-77
2024/01/26 06:11:35;;;;;;;3.88;3.05;;;;;;;;;;5264666;28;20025;-77
2024/01/26 06:14:06;;;;;;;3.92;3.10;;;;;;;;;;5263903;28;20070;-77
2024/01/26 06:16:37;;;;;;;4.10;3.10;;;;;;;;;;5264631;28;20028;-77
2024/01/26 06:19:08;;;;;;;3.92;3.42;;;;;;;;;;5264372;28;20029;-77
2024/01/26 06:21:40;;;;;;;4.57;3.30;;;;;;;;;;5263473;28;20024;-77
2024/01/26 06:24:11;;;;;;;3.88;3.53;;;;;;;;;;5264090;28;20100;-79
2024/01/26 06:26:42;;;;;;;4.13;3.70;;;;;;;;;;5264066;28;20028;-78
2024/01/26 06:29:13;;;;;;;5.85;4.15;;;;;;;;;;5263369;28;20116;-78
2024/01/26 06:31:44;;;;;;;3.60;3.30;;;;;;;;;;5264121;28;20029;-78
2024/01/26 06:34:16;;;;;;;4.22;3.25;;;;;;;;;;5263240;28;20021;-78
2024/01/26 06:36:47;;;;;;;5.13;3.67;;;;;;;;;;5264118;28;20464;-78
2024/01/26 06:39:18;;;;;;;4.05;3.60;;;;;;;;;;5263761;28;20074;-77
2024/01/26 06:41:49;;;;;;;4.55;3.58;;;;;;;;;;5263375;28;20096;-77
2024/01/26 06:44:20;;;;;;;4.25;3.83;;;;;;;;;;5263609;28;20025;-80
2024/01/26 06:46:52;;;;;;;3.38;3.08;;;;;;;;;;5264445;28;20474;-80
2024/01/26 06:49:23;;;;;;;3.70;2.47;;;;;;;;;;5262568;28;20037;-79
2024/01/26 06:51:54;;;;;;;3.84;3.46;;;;;;;;;;5263969;28;20021;-80
2024/01/26 06:54:25;;;;;;;2.97;2.67;;;;;;;;;;5263137;28;20051;-79
2024/01/26 06:56:56;;;;;;;3.28;2.97;;;;;;;;;;5262931;28;20392;-79
2024/01/26 06:59:29;;;;;;;3.28;2.97;;;;;;;;;;5263403;28;20032;-80
2024/01/26 07:02:00;;;;;;;4.18;3.78;;;;;;;;;;5263156;28;20024;-80
2024/01/26 07:04:32;;;;;;;4.00;3.60;;;;;;;;;;5261490;28;20025;-79
2024/01/26 07:07:03;;;;;;;3.50;3.20;;;;;;;;;;5263419;28;20017;-80
2024/01/26 07:09:34;;;;;;;3.17;2.88;;;;;;;;;;5262172;28;20043;-80
2024/01/26 07:12:05;;;;;;;3.97;3.10;;;;;;;;;;5263249;28;20392;-81
2024/01/26 07:14:37;;;;;;;3.78;3.08;;;;;;;;;;5263342;28;20426;-80
2024/01/26 07:17:08;;;;;;;3.92;3.53;;;;;;;;;;5261923;28;20531;-80
2024/01/26 07:19:39;;;;;;;4.05;3.40;;;;;;;;;;5262904;28;20025;-81
2024/01/26 07:22:10;;;;;;;3.90;3.38;;;;;;;;;;5262905;28;20025;-81
2024/01/26 07:24:42;;;;;;;4.38;3.38;;;;;;;;;;5262175;28;20491;-80
2024/01/26 07:27:13;;;;;;;3.30;3.00;;;;;;;;;;5262722;28;20309;-80
2024/01/26 07:29:45;;;;;;;3.40;3.10;;;;;;;;;;5263003;28;20361;-81
2024/01/26 07:32:17;;;;;;;3.50;3.08;;;;;;;;;;5262130;28;20494;-81
2024/01/26 07:34:48;;;;;;;3.70;2.90;;;;;;;;;;5262941;28;20025;-81
2024/01/26 07:37:19;;;;;;;3.00;2.63;;;;;;;;;;5261590;28;20074;-81
2024/01/26 07:39:50;;;;;;;3.40;3.10;;;;;;;;;;5262533;28;20048;-81
2024/01/26 07:42:22;;;;;;;3.20;2.80;;;;;;;;;;5262116;28;20029;-81
2024/01/26 07:44:53;;;;;;;3.50;2.72;;;;;;;;;;5262041;28;20056;-79
2024/01/26 07:47:24;;;;;;;3.83;2.97;;;;;;;;;;5261912;28;20472;-81
2024/01/26 07:49:55;;;;;;;5.88;3.35;;;;;;;;;;5264227;28;20037;-81
2024/01/26 07:52:27;;;;;;;3.47;3.17;;;;;;;;;;5261586;28;20105;-81
2024/01/26 07:54:58;;;;;;;2.90;2.65;;;;;;;;;;5262425;28;20045;-80
2024/01/26 07:57:29;;;;;;;4.57;3.58;;;;;;;;;;5262317;28;20017;-80
2024/01/26 08:00:00;;;;;;;3.30;3.00;;;;;;;;;;5261835;28;20075;-81
2024/01/26 08:02:32;;;;;;;3.88;2.80;;;;;;;;;;5262256;28;20051;-80
2024/01/26 08:05:04;;;;;;;4.53;2.90;;;;;;;;;;5262400;28;20044;-80
2024/01/26 08:07:35;;;;;;;3.72;2.80;;;;;;;;;;5261941;28;20021;-82
2024/01/26 08:10:07;;;;;;;3.38;2.60;;;;;;;;;;5262136;28;20025;-81
2024/01/26 08:12:38;;;;;;;4.28;3.08;;;;;;;;;;5261430;28;20017;-80
2024/01/26 08:15:09;;;;;;;3.05;2.03;;;;;;;;;;5261852;28;20039;-80
2024/01/26 08:17:41;;;;;;;3.22;2.10;;;;;;;;;;5262040;28;20100;-79
2024/01/26 08:20:12;;;;;;;3.22;1.80;;;;;;;;;;5261338;28;20500;-79
2024/01/26 08:22:43;;;;;;;2.33;1.98;;;;;;;;;;5261906;28;20018;-79
2024/01/26 08:25:15;;;;;;;4.60;2.03;;;;;;;;;;5262074;28;20408;-79
2024/01/26 08:27:46;;;;;;;2.42;1.75;;;;;;;;;;5261044;28;20372;-78
2024/01/26 08:30:17;;;;;;;2.97;1.83;;;;;;;;;;5261809;28;20096;-79
2024/01/26 08:32:49;;;;;;;2.83;1.42;;;;;;;;;;5261819;28;20021;-79
2024/01/26 08:35:21;;;;;;;3.25;1.50;;;;;;;;;;5260420;28;20028;-79
2024/01/26 08:37:52;;;;;;;3.10;1.83;;;;;;;;;;5261503;28;20052;-80
2024/01/26 08:40:23;;;;;;;2.75;1.70;;;;;;;;;;5261704;28;20418;-81
2024/01/26 08:42:54;;;;;;;2.35;1.42;;;;;;;;;;5261248;28;20047;-80
2024/01/26 08:45:26;;;;;;;1.50;1.00;;;;;;;;;;5261213;28;20036;-79
2024/01/26 08:47:57;;;;;;;2.15;1.40;;;;;;;;;;5260725;28;20025;-78
2024/01/26 08:50:28;;;;;;;2.55;1.02;;;;;;;;;;5260948;28;20036;-78
2024/01/26 08:52:59;;;;;;;2.50;1.30;;;;;;;;;;5261340;28;20009;-79
2024/01/26 08:55:30;;;;;;;2.35;1.50;;;;;;;;;;5260373;28;20098;-79
2024/01/26 08:58:02;;;;;;;2.42;1.65;;;;;;;;;;5260982;28;20025;-78
2024/01/26 09:00:34;;;;;;;2.38;1.80;;;;;;;;;;5260796;28;20025;-78
2024/01/26 09:03:05;;;;;;;3.15;2.58;;;;;;;;;;5260226;28;20035;-78
2024/01/26 09:05:36;;;;;;;2.38;2.17;;;;;;;;;;5261224;28;20033;-77
2024/01/26 09:08:07;;;;;;;5.18;2.92;;;;;;;;;;5260892;28;20024;-77
2024/01/26 09:10:38;;;;;;;4.15;2.97;;;;;;;;;;5260110;28;20040;-77
2024/01/26 09:13:10;;;;;;;3.03;2.63;;;;;;;;;;5260602;28;20016;-78
2024/01/26 09:15:41;;;;;;;3.90;2.67;;;;;;;;;;5260376;28;20024;-78
2024/01/26 09:18:12;;;;;;;2.75;2.47;;;;;;;;;;5261019;28;20017;-78
2024/01/26 09:20:48;;;;;;;3.60;1.77;;;;;;;;;;5260680;28;20082;-77
2024/01/26 09:23:19;;;;;;;4.00;1.35;;;;;;;;;;5260166;28;20274;-77
2024/01/26 09:25:50;;;;;;;2.80;1.20;;;;;;;;;;5259821;28;20487;-77
2024/01/26 09:28:22;;;;;;;5.00;1.02;;;;;;;;;;5260090;28;20052;-77
2024/01/26 09:30:53;;;;;;;4.25;0.73;;;;;;;;;;5260482;28;20033;-77
2024/01/26 09:33:24;;;;;;;2.38;0.60;;;;;;;;;;5260495;28;20017;-78
2024/01/26 09:35:56;;;;;;;5.65;0.60;;;;;;;;;;5261207;28;20475;-78
2024/01/26 09:38:27;;;;;;;4.47;0.60;;;;;;;;;;5260116;28;20020;-77
2024/01/26 09:40:58;;;;;;;4.97;0.50;;;;;;;;;;5261459;28;20108;-78
2024/01/26 09:43:30;;;;;;;3.97;0.55;;;;;;;;;;5262649;28;20044;-78
2024/01/26 09:46:01;;;;;;;3.42;0.45;;;;;;;;;;5260476;28;20025;-79
2024/01/26 09:48:33;;;;;;;6.32;0.90;;;;;;;;;;5260544;28;20025;-78
2024/01/26 09:51:04;;;;;;;5.03;0.73;;;;;;;;;;5260541;28;20033;-77
2024/01/26 09:53:37;;;;;;;8.45;1.15;;;;;;;;;;5261108;28;20377;-77
2024/01/26 09:56:08;;;;;;;4.90;0.50;;;;;;;;;;5260665;28;20064;-76
2024/01/26 09:58:40;;;;;;;5.38;0.77;;;;;;;;;;5259739;28;20025;-77
2024/01/26 10:01:13;;;;;;;3.67;0.45;;;;;;;;;;5260214;28;20029;-76
2024/01/26 10:03:44;;;;;;;3.83;0.40;;;;;;;;;;5259575;28;20013;-76
2024/01/26 10:06:15;;;;;;;5.45;0.40;;;;;;;;;;5259856;28;20021;-76
2024/01/26 10:08:47;;;;;;;4.88;0.50;;;;;;;;;;5260337;28;20032;-77
2024/01/26 10:11:18;;;;;;;5.38;0.50;;;;;;;;;;5260594;28;20025;-76
2024/01/26 10:13:49;;;;;;;5.30;0.93;;;;;;;;;;5259537;28;20100;-76
2024/01/26 10:16:21;;;;;;;4.03;0.45;;;;;;;;;;5260342;28;20075;-77
2024/01/26 10:18:52;;;;;;;3.53;0.60;;;;;;;;;;5260573;28;20053;-76
2024/01/26 10:21:23;;;;;;;6.00;0.52;;;;;;;;;;5259297;28;20388;-76
2024/01/26 10:23:54;;;;;;;5.97;0.90;;;;;;;;;;5260620;28;20056;-76
2024/01/26 10:26:27;;;;;;;8.10;0.98;;;;;;;;;;5259163;28;20495;-77
2024/01/26 10:28:58;;;;;;;7.35;0.88;;;;;;;;;;5260057;28;20025;-75
2024/01/26 10:31:29;;;;;;;7.53;0.70;;;;;;;;;;5260406;28;20082;-75
2024/01/26 10:34:01;;;;;;;5.25;1.08;;;;;;;;;;5259358;28;20021;-76
2024/01/26 10:36:33;;;;;;;7.35;0.60;;;;;;;;;;5260083;28;20075;-76
2024/01/26 10:39:05;;;;;;;5.82;0.60;;;;;;;;;;5262778;28;20017;-76
2024/01/26 10:41:39;;;;;;;10.15;1.15;;;;;;;;;;5262881;28;20037;-76
2024/01/26 10:44:11;;;;;;;9.68;0.77;;;;;;;;;;5263716;28;20028;-76
2024/01/26 10:46:42;;;;;;;7.40;0.80;;;;;;;;;;5263714;28;20017;-76
2024/01/26 10:49:15;;;;;;;7.95;0.60;;;;;;;;;;5262620;28;20033;-76
2024/01/26 10:51:47;;;;;;;7.78;0.60;;;;;;;;;;5263484;28;20016;-77
2024/01/26 10:54:19;;;;;;;7.63;0.90;;;;;;;;;;5262710;28;20476;-75
2024/01/26 10:56:50;;;;;;;8.88;0.90;;;;;;;;;;5263389;28;20151;-78
2024/01/26 10:59:23;;;;;;;6.40;0.52;;;;;;;;;;5263222;28;20028;-78
2024/01/26 11:01:54;;;;;;;8.68;0.70;;;;;;;;;;5262978;28;20475;-79
2024/01/26 11:04:30;;;;;;;5.78;0.60;;;;;;;;;;5263162;28;20025;-78
2024/01/26 11:07:01;;;;;;;3.60;0.60;;;;;;;;;;5263499;28;20372;-78
2024/01/26 11:09:35;;;;;;;5.97;0.60;;;;;;;;;;5262404;28;20036;-78
2024/01/26 11:12:18;;;;;;;4.22;0.40;;;;;;;;;;5264799;28;20027;-79
2024/01/26 11:15:05;;;;;;;8.13;0.98;;;;;;;;;;5267820;28;20118;-78
2024/01/26 11:17:49;;;;;;;8.73;0.55;;;;;;;;;;5262179;28;20068;-79
2024/01/26 11:20:22;;;;;;;7.10;0.57;;;;;;;;;;5262903;28;20079;-80
2024/01/26 11:23:01;;;;;;;6.03;0.50;;;;;;;;;;5262584;28;20080;-79
2024/01/26 11:25:40;;;;;;;5.47;0.60;;;;;;;;;;5263003;28;20024;-78
2024/01/26 11:28:14;;;;;;;6.13;0.52;;;;;;;;;;5263429;28;20144;-80
2024/01/26 11:30:59;;;;;;;4.63;0.30;;;;;;;;;;5265720;28;20111;-79
2024/01/26 11:33:35;;;;;;;2.10;0.30;;;;;;;;;;5256633;28;20056;-76
2024/01/26 11:36:09;;;;;;;5.90;0.50;;;;;;;;;;5264711;28;20037;-77
2024/01/26 11:38:40;;;;;;;4.45;0.43;;;;;;;;;;5261553;28;20396;-78
2024/01/26 11:41:12;;;;;;;5.50;0.60;;;;;;;;;;5262368;28;20012;-80
2024/01/26 11:43:46;;;;;;;3.90;0.43;;;;;;;;;;5261866;28;20021;-78
2024/01/26 11:46:19;;;;;;;5.28;0.93;;;;;;;;;;5262126;28;20109;-75
2024/01/26 11:48:50;;;;;;;5.20;0.40;;;;;;;;;;5261711;28;20037;-74
2024/01/26 11:51:21;;;;;;;4.22;0.40;;;;;;;;;;5260581;28;20009;-76
2024/01/26 11:53:53;;;;;;;3.42;0.30;;;;;;;;;;5262087;28;20029;-76
2024/01/26 11:56:24;;;;;;;4.20;0.70;;;;;;;;;;5261938;28;20472;-79
2024/01/26 11:58:55;;;;;;;5.53;0.40;;;;;;;;;;5261992;28;20037;-78
2024/01/26 12:01:26;;;;;;;6.25;0.63;;;;;;;;;;5262074;28;20013;-78
2024/01/26 12:03:57;;;;;;;8.65;0.68;;;;;;;;;;5261571;28;20036;-78
2024/01/26 12:06:29;;;;;;;5.57;0.47;;;;;;;;;;5260321;28;20428;-79
2024/01/26 12:09:00;;;;;;;4.28;0.50;;;;;;;;;;5262055;28;20124;-78
2024/01/26 12:11:31;;;;;;;4.82;0.38;;;;;;;;;;5261463;28;20032;-78
2024/01/26 12:14:03;;;;;;;2.70;0.43;;;;;;;;;;5261312;28;20528;-78
2024/01/26 12:16:34;;;;;;;4.63;0.52;;;;;;;;;;5261379;28;20053;-78
2024/01/26 12:19:06;;;;;;;2.78;0.40;;;;;;;;;;5260361;28;20021;-78
2024/01/26 12:21:38;;;;;;;3.97;0.40;;;;;;;;;;5261334;28;20464;-73
2024/01/26 12:24:12;;;;;;;6.07;0.50;;;;;;;;;;5261274;28;20020;-74
2024/01/26 12:26:44;;;;;;;4.30;0.50;;;;;;;;;;5260693;28;20033;-76
2024/01/26 12:29:15;;;;;;;8.98;0.60;;;;;;;;;;5260677;28;20526;-79
2024/01/26 12:31:46;;;;;;;4.20;0.40;;;;;;;;;;5261069;28;20012;-79
2024/01/26 12:34:17;;;;;;;7.13;0.40;;;;;;;;;;5260296;28;20025;-79
2024/01/26 12:36:49;;;;;;;5.15;0.60;;;;;;;;;;5261340;28;20132;-79
2024/01/26 12:39:20;;;;;;;3.78;0.57;;;;;;;;;;5261292;28;20526;-79
2024/01/26 12:41:53;;;;;;;6.43;0.50;;;;;;;;;;5260586;28;20073;-79
2024/01/26 12:44:28;;;;;;;5.68;0.60;;;;;;;;;;5260809;28;20013;-80
2024/01/26 12:47:00;;;;;;;3.90;0.40;;;;;;;;;;5260047;28;20094;-79
2024/01/26 12:49:34;;;;;;;5.68;0.55;;;;;;;;;;5261154;28;20448;-79
2024/01/26 12:52:06;;;;;;;4.47;0.70;;;;;;;;;;5261605;28;20073;-78
2024/01/26 12:54:37;;;;;;;4.75;0.70;;;;;;;;;;5260393;28;20064;-79
2024/01/26 12:57:08;;;;;;;5.57;0.40;;;;;;;;;;5261282;28;20064;-79
2024/01/26 12:59:39;;;;;;;6.05;0.50;;;;;;;;;;5261000;28;20029;-78
2024/01/26 13:02:11;;;;;;;7.60;1.05;;;;;;;;;;5258997;28;20025;-74
2024/01/26 13:04:42;;;;;;;4.95;0.45;;;;;;;;;;5261071;28;20025;-78
2024/01/26 13:07:13;;;;;;;4.43;0.50;;;;;;;;;;5261017;28;20009;-78
2024/01/26 13:09:45;;;;;;;5.72;0.82;;;;;;;;;;5260151;28;20086;-78
2024/01/26 13:12:17;;;;;;;5.78;0.55;;;;;;;;;;5260752;28;20025;-78
2024/01/26 13:14:48;;;;;;;4.80;0.70;;;;;;;;;;5260531;28;20384;-78
2024/01/26 13:17:19;;;;;;;7.45;0.80;;;;;;;;;;5260115;28;20041;-78
2024/01/26 13:19:50;;;;;;;7.65;1.02;;;;;;;;;;5261577;28;20025;-80
2024/01/26 13:22:23;;;;;;;4.53;0.50;;;;;;;;;;5262774;28;20056;-80
2024/01/26 13:24:54;;;;;;;4.28;0.40;;;;;;;;;;5268118;28;20055;-80
2024/01/26 13:27:25;;;;;;;6.03;0.60;;;;;;;;;;5264740;28;20013;-80
2024/01/26 13:29:56;;;;;;;5.32;0.90;;;;;;;;;;5260301;28;20060;-75
2024/01/26 13:32:27;;;;;;;4.85;0.75;;;;;;;;;;5260298;28;20025;-79
2024/01/26 13:34:58;;;;;;;6.82;0.65;;;;;;;;;;5261080;28;20167;-79
2024/01/26 13:37:30;;;;;;;7.45;1.17;;;;;;;;;;5259785;28;20025;-79
2024/01/26 13:40:05;;;;;;;7.32;0.55;;;;;;;;;;5260656;28;20067;-79
2024/01/26 13:42:36;;;;;;;4.10;0.60;;;;;;;;;;5260863;28;20017;-80
2024/01/26 13:45:11;;;;;;;6.07;0.80;;;;;;;;;;5259704;28;20029;-79
2024/01/26 13:47:42;;;;;;;6.15;1.15;;;;;;;;;;5260093;28;20524;-79
2024/01/26 13:50:14;;;;;;;6.40;0.50;;;;;;;;;;5259729;28;20116;-79
2024/01/26 13:52:45;;;;;;;7.35;0.50;;;;;;;;;;5260341;28;20017;-79
2024/01/26 13:55:18;;;;;;;8.75;1.35;;;;;;;;;;5260128;28;20467;-79
2024/01/26 13:57:49;;;;;;;6.85;0.70;;;;;;;;;;5259805;28;20071;-79
2024/01/26 14:00:22;;;;;;;7.93;0.60;;;;;;;;;;5260199;28;20017;-79
2024/01/26 14:02:53;;;;;;;9.07;1.25;;;;;;;;;;5260131;28;20037;-76
2024/01/26 14:05:24;;;;;;;5.25;0.40;;;;;;;;;;5259685;28;20491;-76
2024/01/26 14:07:55;;;;;;;4.82;0.40;;;;;;;;;;5260800;28;20400;-80
2024/01/26 14:10:27;;;;;;;5.65;0.50;;;;;;;;;;5259961;28;20084;-79
2024/01/26 14:12:58;;;;;;;4.72;0.50;;;;;;;;;;5260943;28;20021;-80
2024/01/26 14:15:29;;;;;;;5.30;0.40;;;;;;;;;;5264026;28;20024;-79
2024/01/26 14:18:00;;;;;;;3.97;0.60;;;;;;;;;;5264128;28;20066;-80
2024/01/26 14:20:35;;;;;;;6.05;0.60;;;;;;;;;;5264030;28;20017;-80
2024/01/26 14:23:06;;;;;;;5.38;0.85;;;;;;;;;;5264448;28;20017;-79
2024/01/26 14:25:39;;;;;;;3.55;0.68;;;;;;;;;;5263344;28;20059;-80
2024/01/26 14:28:13;;;;;;;7.13;0.98;;;;;;;;;;5263751;28;20017;-79
2024/01/26 14:30:45;;;;;;;5.72;0.50;;;;;;;;;;5263913;28;20025;-79
2024/01/26 14:33:17;;;;;;;6.07;0.77;;;;;;;;;;5262469;28;20021;-79
2024/01/26 14:35:48;;;;;;;8.25;0.63;;;;;;;;;;5263633;28;20461;-79
2024/01/26 14:38:21;;;;;;;6.57;1.00;;;;;;;;;;5251182;28;20455;-79
2024/01/26 14:40:52;;;;;;;5.75;0.70;;;;;;;;;;5246300;28;20113;-80
2024/01/26 14:43:23;;;;;;;7.40;0.77;;;;;;;;;;5242266;28;20104;-79
2024/01/26 14:45:54;;;;;;;5.28;0.40;;;;;;;;;;5243086;28;20014;-79
2024/01/26 14:48:26;;;;;;;3.80;0.50;;;;;;;;;;5239761;28;20029;-79
2024/01/26 14:50:57;;;;;;;5.28;0.70;;;;;;;;;;5241608;28;20104;-77
2024/01/26 14:53:29;;;;;;;9.14;0.84;;;;;;;;;;5242342;28;20025;-77
2024/01/26 14:56:00;;;;;;;5.32;0.60;;;;;;;;;;5242647;28;20420;-77
2024/01/26 14:58:32;;;;;;;7.63;0.68;;;;;;;;;;5242740;28;20026;-78
2024/01/26 15:01:03;;;;;;;7.38;1.05;;;;;;;;;;5241990;28;20104;-78
2024/01/26 15:03:35;;;;;;;4.88;0.60;;;;;;;;;;5242552;28;20014;-77
2024/01/26 15:06:07;;;;;;;7.07;0.80;;;;;;;;;;5242850;28;20013;-77
2024/01/26 15:08:39;;;;;;;4.50;0.82;;;;;;;;;;5241833;28;20093;-78